createdAt,value
2023-02-17T00:01:49.293Z,1.24
2023-02-17T00:05:51.183Z,1.09
2023-02-17T00:09:53.944Z,0.92
2023-02-17T00:13:56.562Z,0.70
2023-02-17T00:17:58.273Z,0.63
2023-02-17T00:22:00.261Z,0.79
2023-02-17T00:26:06.105Z,0.71
2023-02-17T00:30:08.101Z,0.72
2023-02-17T00:34:09.554Z,0.57
2023-02-17T00:38:10.900Z,0.39
2023-02-17T00:42:13.597Z,0.37
2023-02-17T00:46:15.058Z,0.16
2023-02-17T00:50:16.613Z,0.31
2023-02-17T00:54:18.460Z,0.41
2023-02-17T00:58:21.204Z,0.35
2023-02-17T01:02:22.545Z,0.09
2023-02-17T01:06:25.192Z,0.09
2023-02-17T01:10:26.559Z,-0.06
2023-02-17T01:14:29.381Z,0.03
2023-02-17T01:18:30.726Z,-0.09
2023-02-17T01:22:32.153Z,-0.17
2023-02-17T01:26:34.416Z,0.16
2023-02-17T01:30:37.137Z,0.06
2023-02-17T01:34:38.596Z,0.10
2023-02-17T01:38:40.219Z,0.29
2023-02-17T01:42:41.586Z,0.36
2023-02-17T01:46:44.950Z,0.33
2023-02-17T01:50:48.694Z,0.36
2023-02-17T01:54:52.441Z,0.34
2023-02-17T01:58:57.399Z,0.25
2023-02-17T02:03:00.551Z,0.16
2023-02-17T02:07:02.173Z,0.33
2023-02-17T02:11:03.576Z,0.26
2023-02-17T02:15:06.534Z,0.27
2023-02-17T02:19:17.539Z,0.40
2023-02-17T02:23:39.895Z,0.45
2023-02-17T02:27:55.096Z,0.31
2023-02-17T02:32:04.519Z,0.58
2023-02-17T02:36:11.144Z,0.49
2023-02-17T02:40:14.986Z,0.43
2023-02-17T02:44:18.288Z,0.51
2023-02-17T02:48:19.657Z,0.50
2023-02-17T02:52:26.701Z,0.51
2023-02-17T02:56:34.069Z,0.51
2023-02-17T03:00:39.981Z,0.59
2023-02-17T03:04:46.017Z,0.72
2023-02-17T03:08:51.610Z,0.94
2023-02-17T03:12:53.079Z,0.96
2023-02-17T03:16:54.492Z,1.09
2023-02-17T03:20:57.315Z,1.02
2023-02-17T03:25:00.002Z,1.10
2023-02-17T03:29:01.364Z,1.20
2023-02-17T03:33:02.732Z,1.22
2023-02-17T03:37:04.124Z,1.29
2023-02-17T03:41:06.902Z,1.39
2023-02-17T03:45:08.655Z,1.54
2023-02-17T03:49:11.610Z,1.55
2023-02-17T03:53:14.312Z,1.60
2023-02-17T03:57:17.030Z,1.65
2023-02-17T04:01:18.385Z,1.65
2023-02-17T04:05:19.748Z,1.64
2023-02-17T04:09:21.121Z,1.62
2023-02-17T04:13:24.129Z,1.77
2023-02-17T04:17:25.548Z,1.78
2023-02-17T04:21:26.990Z,1.90
2023-02-17T04:25:28.324Z,1.98
2023-02-17T04:29:31.046Z,2.02
2023-02-17T04:33:32.708Z,2.39
2023-02-17T04:37:34.093Z,2.40
2023-02-17T04:41:35.451Z,2.33
2023-02-17T04:45:38.280Z,2.21
2023-02-17T04:49:39.610Z,2.12
2023-02-17T04:53:40.989Z,2.17
2023-02-17T04:57:42.338Z,2.15
2023-02-17T05:01:45.082Z,2.20
2023-02-17T05:05:46.482Z,2.08
2023-02-17T05:09:47.894Z,2.00
2023-02-17T05:13:49.243Z,2.06
2023-02-17T05:17:51.955Z,1.87
2023-02-17T05:21:53.313Z,2.03
2023-02-17T05:25:54.693Z,2.12
2023-02-17T05:29:56.113Z,2.20
2023-02-17T05:33:58.839Z,2.19
2023-02-17T05:38:00.192Z,2.20
2023-02-17T05:42:01.521Z,2.21
2023-02-17T05:46:03.053Z,2.12
2023-02-17T05:50:06.744Z,2.00
2023-02-17T05:54:08.125Z,2.11
2023-02-17T05:58:09.490Z,2.12
2023-02-17T06:02:11.184Z,2.05
2023-02-17T06:06:13.935Z,1.98
2023-02-17T06:10:15.304Z,2.12
2023-02-17T06:14:16.654Z,2.30
2023-02-17T06:18:18.052Z,2.31
2023-02-17T06:22:20.797Z,2.19
2023-02-17T06:26:22.162Z,2.21
2023-02-17T06:30:23.799Z,2.22
2023-02-17T06:34:25.187Z,2.15
2023-02-17T06:38:27.926Z,2.34
2023-02-17T06:42:29.292Z,2.52
2023-02-17T06:46:30.622Z,2.89
2023-02-17T06:50:32.001Z,2.98
2023-02-17T06:54:34.704Z,3.13
2023-02-17T06:58:36.505Z,3.19
2023-02-17T07:02:38.002Z,3.39
2023-02-17T07:06:39.344Z,3.53
2023-02-17T07:10:42.121Z,3.54
2023-02-17T07:14:43.477Z,3.55
2023-02-17T07:18:44.850Z,3.74
2023-02-17T07:22:46.407Z,4.02
2023-02-17T07:26:49.156Z,4.16
2023-02-17T07:30:50.517Z,4.17
2023-02-17T07:34:51.895Z,4.34
2023-02-17T07:38:53.326Z,4.40
2023-02-17T07:42:56.546Z,4.46
2023-02-17T07:46:58.040Z,4.71
2023-02-17T07:51:04.292Z,5.00
2023-02-17T07:55:05.988Z,5.34
2023-02-17T07:59:09.580Z,5.41
2023-02-17T08:03:10.905Z,5.46
2023-02-17T08:07:12.247Z,5.71
2023-02-17T08:11:14.845Z,5.79
2023-02-17T08:15:17.575Z,6.24
2023-02-17T08:19:19.161Z,6.51
2023-02-17T08:23:20.503Z,6.67
2023-02-17T08:27:21.917Z,6.79
2023-02-17T08:31:25.504Z,6.56
2023-02-17T08:35:27.683Z,6.69
2023-02-17T08:39:29.608Z,6.78
2023-02-17T08:43:30.982Z,6.92
2023-02-17T08:47:34.024Z,7.01
2023-02-17T08:51:36.030Z,7.16
2023-02-17T08:55:48.502Z,7.15
2023-02-17T08:59:50.733Z,6.90
2023-02-17T09:03:54.195Z,7.05
2023-02-17T09:07:55.611Z,7.27
2023-02-17T09:11:57.561Z,7.42
2023-02-17T09:15:59.077Z,7.66
2023-02-17T09:20:01.841Z,7.72
2023-02-17T09:24:03.509Z,7.92
2023-02-17T09:28:05.103Z,8.04
2023-02-17T09:32:06.830Z,8.45
2023-02-17T09:36:11.635Z,8.63
2023-02-17T09:40:17.571Z,8.95
2023-02-17T09:44:21.131Z,9.12
2023-02-17T09:48:26.874Z,9.18
2023-02-17T09:52:32.658Z,9.20
2023-02-17T09:56:35.526Z,9.13
2023-02-17T10:00:39.724Z,9.14
2023-02-17T10:04:42.716Z,9.21
2023-02-17T10:08:48.160Z,9.30
2023-02-17T10:12:52.059Z,9.45
2023-02-17T10:16:59.929Z,9.55
2023-02-17T10:21:03.809Z,9.67
2023-02-17T10:25:14.674Z,9.84
2023-02-17T10:29:22.155Z,9.97
2023-02-17T10:33:28.736Z,10.05
2023-02-17T10:37:35.817Z,10.02
2023-02-17T10:41:40.181Z,10.09
2023-02-17T10:45:43.226Z,10.13
2023-02-17T10:49:46.983Z,10.07
2023-02-17T10:53:51.175Z,10.04
2023-02-17T10:57:54.508Z,10.13
2023-02-17T11:01:58.262Z,10.18
2023-02-17T11:06:01.042Z,10.11
2023-02-17T11:10:04.064Z,10.17
2023-02-17T11:14:13.053Z,10.22
2023-02-17T11:18:20.312Z,10.13
2023-02-17T11:22:33.053Z,10.10
2023-02-17T11:26:35.331Z,10.30
2023-02-17T11:30:39.862Z,10.45
2023-02-17T11:34:42.131Z,10.64
2023-02-17T11:38:45.204Z,10.70
2023-02-17T11:42:54.966Z,10.86
2023-02-17T11:47:05.880Z,10.89
2023-02-17T11:51:10.232Z,10.94
2023-02-17T11:55:18.019Z,11.02
2023-02-17T11:59:30.535Z,11.18
2023-02-17T12:03:42.976Z,11.25
2023-02-17T12:07:50.014Z,11.33
2023-02-17T12:11:55.687Z,11.43
2023-02-17T12:16:06.100Z,11.63
2023-02-17T12:20:16.266Z,11.67
2023-02-17T12:24:30.192Z,11.52
2023-02-17T12:28:41.326Z,11.47
2023-02-17T12:32:56.990Z,11.42
2023-02-17T12:36:59.855Z,11.34
2023-02-17T12:41:04.091Z,11.30
2023-02-17T12:45:07.210Z,11.24
2023-02-17T12:49:11.596Z,11.20
2023-02-17T12:53:18.385Z,11.18
2023-02-17T12:57:22.360Z,11.21
2023-02-17T13:01:25.588Z,11.24
2023-02-17T13:05:29.858Z,11.20
2023-02-17T13:09:35.441Z,11.18
2023-02-17T13:13:37.099Z,11.12
2023-02-17T13:17:39.417Z,10.93
2023-02-17T13:21:51.634Z,11.01
2023-02-17T13:26:05.861Z,10.96
2023-02-17T13:30:08.896Z,10.90
2023-02-17T13:34:10.335Z,10.85
2023-02-17T13:38:11.747Z,10.84
2023-02-17T13:42:37.358Z,10.82
2023-02-17T13:46:38.838Z,10.64
2023-02-17T13:50:43.669Z,10.61
2023-02-17T13:54:51.648Z,10.63
2023-02-17T13:58:54.886Z,10.59
2023-02-17T14:02:57.365Z,10.66
2023-02-17T14:06:59.770Z,10.70
2023-02-17T14:11:04.938Z,10.71
2023-02-17T14:15:14.513Z,10.74
2023-02-17T14:19:17.017Z,10.66
2023-02-17T14:23:18.365Z,10.62
2023-02-17T14:27:19.696Z,10.72
2023-02-17T14:31:22.879Z,10.78
2023-02-17T14:35:24.362Z,10.80
2023-02-17T14:39:25.803Z,10.87
2023-02-17T14:43:27.254Z,10.80
2023-02-17T14:47:29.955Z,10.77
2023-02-17T14:51:32.818Z,10.86
2023-02-17T14:55:36.115Z,10.93
2023-02-17T14:59:37.446Z,10.98
2023-02-17T15:03:41.928Z,11.01
2023-02-17T15:07:43.338Z,11.13
2023-02-17T15:11:45.281Z,11.16
2023-02-17T15:15:46.771Z,11.12
2023-02-17T15:19:49.553Z,11.15
2023-02-17T15:23:50.912Z,11.19
2023-02-17T15:27:52.270Z,11.17
2023-02-17T15:31:54.461Z,11.16
2023-02-17T15:35:57.203Z,11.12
2023-02-17T15:39:58.565Z,11.21
2023-02-17T15:44:00.947Z,11.24
2023-02-17T15:48:04.302Z,11.28
2023-02-17T15:52:10.162Z,11.26
2023-02-17T15:56:13.288Z,11.23
2023-02-17T16:00:19.882Z,11.23
2023-02-17T16:04:21.859Z,11.16
2023-02-17T16:08:24.559Z,11.10
2023-02-17T16:12:25.952Z,11.15
2023-02-17T16:16:28.727Z,11.18
2023-02-17T16:20:33.507Z,11.14
2023-02-17T16:24:37.311Z,11.12
2023-02-17T16:28:38.657Z,11.08
2023-02-17T16:32:40.069Z,11.04
2023-02-17T16:36:41.696Z,11.02
2023-02-17T16:40:46.197Z,10.88
2023-02-17T16:44:48.412Z,10.73
2023-02-17T16:48:50.069Z,10.63
2023-02-17T16:52:52.504Z,10.16
2023-02-17T16:56:55.955Z,9.76
2023-02-17T17:00:57.393Z,9.52
2023-02-17T17:04:58.886Z,9.30
2023-02-17T17:09:00.284Z,9.05
2023-02-17T17:13:03.001Z,8.87
2023-02-17T17:17:04.363Z,8.59
2023-02-17T17:21:05.952Z,8.55
2023-02-17T17:25:07.711Z,9.16
2023-02-17T17:29:11.812Z,9.65
2023-02-17T17:33:13.153Z,9.99
2023-02-17T17:37:14.502Z,10.22
2023-02-17T17:41:15.953Z,10.47
2023-02-17T17:45:18.930Z,10.65
2023-02-17T17:49:20.289Z,10.76
2023-02-17T17:53:21.860Z,10.76
2023-02-17T17:57:23.236Z,10.84
2023-02-17T18:01:26.168Z,10.90
2023-02-17T18:05:27.682Z,10.95
2023-02-17T18:09:32.305Z,10.95
2023-02-17T18:13:33.931Z,10.99
2023-02-17T18:17:38.676Z,10.96
2023-02-17T18:21:40.056Z,10.96
2023-02-17T18:25:41.535Z,10.96
2023-02-17T18:29:42.978Z,10.97
2023-02-17T18:33:45.708Z,10.99
2023-02-17T18:37:47.084Z,11.01
2023-02-17T18:41:48.458Z,10.99
2023-02-17T18:45:49.858Z,10.99
2023-02-17T18:49:52.654Z,11.02
2023-02-17T18:53:54.332Z,11.03
2023-02-17T18:57:56.030Z,11.07
2023-02-17T19:01:57.371Z,11.12
2023-02-17T19:06:07.695Z,11.11
2023-02-17T19:10:09.923Z,11.14
2023-02-17T19:14:11.274Z,11.18
2023-02-17T19:18:12.627Z,11.25
2023-02-17T19:22:15.369Z,11.21
2023-02-17T19:26:17.431Z,11.24
2023-02-17T19:30:18.851Z,11.23
2023-02-17T19:34:20.213Z,11.17
2023-02-17T19:38:23.027Z,11.16
2023-02-17T19:42:24.382Z,11.11
2023-02-17T19:46:25.800Z,11.01
2023-02-17T19:50:27.301Z,11.01
2023-02-17T19:54:30.010Z,10.93
2023-02-17T19:58:31.371Z,10.94
2023-02-17T20:02:33.189Z,10.87
2023-02-17T20:06:37.612Z,10.86
2023-02-17T20:10:40.592Z,10.80
2023-02-17T20:14:41.924Z,10.76
2023-02-17T20:18:44.044Z,10.70
2023-02-17T20:22:45.468Z,10.62
2023-02-17T20:26:48.870Z,10.62
2023-02-17T20:30:50.234Z,10.56
2023-02-17T20:34:52.706Z,10.54
2023-02-17T20:38:54.193Z,10.53
2023-02-17T20:42:56.929Z,10.57
2023-02-17T20:46:58.308Z,10.56
2023-02-17T20:50:59.749Z,10.61
2023-02-17T20:55:01.130Z,10.66
2023-02-17T20:59:04.378Z,10.70
2023-02-17T21:03:05.922Z,10.68
2023-02-17T21:07:07.293Z,10.72
2023-02-17T21:11:08.657Z,10.74
2023-02-17T21:15:11.563Z,10.77
2023-02-17T21:19:13.214Z,10.78
2023-02-17T21:23:14.575Z,10.76
2023-02-17T21:27:15.925Z,10.84
2023-02-17T21:31:19.234Z,10.81
2023-02-17T21:35:20.625Z,10.84
2023-02-17T21:39:21.987Z,10.90
2023-02-17T21:43:23.299Z,10.91
2023-02-17T21:47:25.997Z,10.89
2023-02-17T21:51:27.648Z,10.89
2023-02-17T21:55:29.016Z,10.87
2023-02-17T21:59:30.456Z,10.93
2023-02-17T22:03:33.143Z,10.90
2023-02-17T22:07:34.561Z,10.92
2023-02-17T22:11:36.592Z,10.90
2023-02-17T22:15:38.013Z,10.87
2023-02-17T22:19:40.730Z,10.92
2023-02-17T22:23:42.729Z,10.92
2023-02-17T22:27:44.071Z,10.90
2023-02-17T22:31:45.616Z,10.89
2023-02-17T22:35:55.985Z,10.90
2023-02-17T22:39:57.382Z,10.86
2023-02-17T22:43:59.524Z,10.80
2023-02-17T22:48:00.874Z,10.78
2023-02-17T22:52:03.690Z,10.76
2023-02-17T22:56:05.888Z,10.74
2023-02-17T23:00:07.926Z,10.72
2023-02-17T23:04:11.990Z,10.68
2023-02-17T23:08:14.690Z,10.65
2023-02-17T23:12:16.019Z,10.68
2023-02-17T23:16:18.841Z,10.68
2023-02-17T23:20:20.396Z,10.65
2023-02-17T23:24:23.828Z,10.61
2023-02-17T23:28:25.443Z,10.60
2023-02-17T23:32:26.780Z,10.58
2023-02-17T23:36:28.165Z,10.63
2023-02-17T23:40:30.840Z,10.63
2023-02-17T23:44:32.184Z,10.60
2023-02-17T23:48:33.527Z,10.58
2023-02-17T23:52:35.195Z,10.59
2023-02-17T23:56:38.251Z,10.58
